sensor_id;sensor_type;location;lat;lon;timestamp;temperature;humidity
65291;SHT30;51893;59.754;10.110;2023-04-01T00:00:59;-2.62;65.59
65291;SHT30;51893;59.754;10.110;2023-04-01T00:03:27;-2.58;65.43
65291;SHT30;51893;59.754;10.110;2023-04-01T00:05:56;-2.55;65.33
65291;SHT30;51893;59.754;10.110;2023-04-01T00:08:26;-2.63;65.05
65291;SHT30;51893;59.754;10.110;2023-04-01T00:10:53;-2.63;65.12
65291;SHT30;51893;59.754;10.110;2023-04-01T00:13:21;-2.60;64.96
65291;SHT30;51893;59.754;10.110;2023-04-01T00:15:49;-2.62;64.84
65291;SHT30;51893;59.754;10.110;2023-04-01T00:18:16;-2.66;64.91
65291;SHT30;51893;59.754;10.110;2023-04-01T00:20:48;-2.63;64.95
65291;SHT30;51893;59.754;10.110;2023-04-01T00:23:18;-2.67;64.96
65291;SHT30;51893;59.754;10.110;2023-04-01T00:25:46;-2.69;64.90
65291;SHT30;51893;59.754;10.110;2023-04-01T00:28:17;-2.70;64.78
65291;SHT30;51893;59.754;10.110;2023-04-01T00:30:48;-2.74;64.73
65291;SHT30;51893;59.754;10.110;2023-04-01T00:33:15;-2.79;64.97
65291;SHT30;51893;59.754;10.110;2023-04-01T00:35:46;-2.70;65.10
65291;SHT30;51893;59.754;10.110;2023-04-01T00:38:14;-2.73;64.85
65291;SHT30;51893;59.754;10.110;2023-04-01T00:40:44;-2.79;64.95
65291;SHT30;51893;59.754;10.110;2023-04-01T00:43:14;-2.88;64.94
65291;SHT30;51893;59.754;10.110;2023-04-01T00:45:46;-2.86;64.85
65291;SHT30;51893;59.754;10.110;2023-04-01T00:51:10;-2.85;64.68
65291;SHT30;51893;59.754;10.110;2023-04-01T00:53:44;-2.93;65.10
65291;SHT30;51893;59.754;10.110;2023-04-01T00:56:17;-3.00;65.24
65291;SHT30;51893;59.754;10.110;2023-04-01T01:01:50;-3.27;65.49
65291;SHT30;51893;59.754;10.110;2023-04-01T01:04:31;-3.27;65.66
65291;SHT30;51893;59.754;10.110;2023-04-01T01:07:08;-3.24;65.87
65291;SHT30;51893;59.754;10.110;2023-04-01T01:12:48;-3.20;65.54
65291;SHT30;51893;59.754;10.110;2023-04-01T01:15:37;-3.19;65.40
65291;SHT30;51893;59.754;10.110;2023-04-01T01:18:48;-3.22;65.41
65291;SHT30;51893;59.754;10.110;2023-04-01T01:21:55;-3.20;65.56
65291;SHT30;51893;59.754;10.110;2023-04-01T01:27:32;-3.11;65.18
65291;SHT30;51893;59.754;10.110;2023-04-01T01:35:59;-3.20;65.41
65291;SHT30;51893;59.754;10.110;2023-04-01T01:38:33;-3.17;65.13
65291;SHT30;51893;59.754;10.110;2023-04-01T01:41:02;-3.11;64.85
65291;SHT30;51893;59.754;10.110;2023-04-01T01:43:35;-3.06;64.73
65291;SHT30;51893;59.754;10.110;2023-04-01T01:46:10;-3.09;64.69
65291;SHT30;51893;59.754;10.110;2023-04-01T01:48:42;-3.05;64.74
65291;SHT30;51893;59.754;10.110;2023-04-01T01:51:11;-2.97;64.44
65291;SHT30;51893;59.754;10.110;2023-04-01T01:53:38;-2.93;64.13
65291;SHT30;51893;59.754;10.110;2023-04-01T01:56:05;-2.97;64.29
65291;SHT30;51893;59.754;10.110;2023-04-01T01:58:37;-3.08;64.64
65291;SHT30;51893;59.754;10.110;2023-04-01T02:01:12;-3.12;64.54
65291;SHT30;51893;59.754;10.110;2023-04-01T02:03:44;-3.22;64.76
65291;SHT30;51893;59.754;10.110;2023-04-01T02:06:15;-3.24;64.98
65291;SHT30;51893;59.754;10.110;2023-04-01T02:08:49;-3.26;64.89
65291;SHT30;51893;59.754;10.110;2023-04-01T02:11:30;-3.40;65.04
65291;SHT30;51893;59.754;10.110;2023-04-01T02:19:17;-3.37;65.49
65291;SHT30;51893;59.754;10.110;2023-04-01T02:21:53;-3.41;65.47
65291;SHT30;51893;59.754;10.110;2023-04-01T02:24:28;-3.47;65.43
65291;SHT30;51893;59.754;10.110;2023-04-01T02:27:02;-3.57;65.70
65291;SHT30;51893;59.754;10.110;2023-04-01T02:29:31;-3.53;65.57
65291;SHT30;51893;59.754;10.110;2023-04-01T02:31:58;-3.62;65.58
65291;SHT30;51893;59.754;10.110;2023-04-01T02:34:27;-3.71;65.76
65291;SHT30;51893;59.754;10.110;2023-04-01T02:36:55;-3.71;65.66
65291;SHT30;51893;59.754;10.110;2023-04-01T02:39:23;-3.74;65.64
65291;SHT30;51893;59.754;10.110;2023-04-01T02:41:52;-3.70;65.66
65291;SHT30;51893;59.754;10.110;2023-04-01T02:44:20;-3.70;65.84
65291;SHT30;51893;59.754;10.110;2023-04-01T02:46:48;-3.75;65.65
65291;SHT30;51893;59.754;10.110;2023-04-01T02:49:15;-3.85;65.58
65291;SHT30;51893;59.754;10.110;2023-04-01T02:51:41;-3.80;65.82
65291;SHT30;51893;59.754;10.110;2023-04-01T02:54:08;-3.75;65.90
65291;SHT30;51893;59.754;10.110;2023-04-01T02:56:35;-3.76;65.54
65291;SHT30;51893;59.754;10.110;2023-04-01T02:59:02;-3.80;65.70
65291;SHT30;51893;59.754;10.110;2023-04-01T03:01:29;-3.83;65.88
65291;SHT30;51893;59.754;10.110;2023-04-01T03:03:57;-3.84;65.72
65291;SHT30;51893;59.754;10.110;2023-04-01T03:06:23;-3.79;65.39
65291;SHT30;51893;59.754;10.110;2023-04-01T03:08:50;-3.78;65.28
65291;SHT30;51893;59.754;10.110;2023-04-01T03:11:17;-3.78;65.15
65291;SHT30;51893;59.754;10.110;2023-04-01T03:13:43;-3.80;65.24
65291;SHT30;51893;59.754;10.110;2023-04-01T03:16:10;-3.77;65.16
65291;SHT30;51893;59.754;10.110;2023-04-01T03:18:37;-3.74;65.13
65291;SHT30;51893;59.754;10.110;2023-04-01T03:21:14;-3.73;65.15
65291;SHT30;51893;59.754;10.110;2023-04-01T03:23:43;-3.73;65.06
65291;SHT30;51893;59.754;10.110;2023-04-01T03:26:11;-3.75;64.99
65291;SHT30;51893;59.754;10.110;2023-04-01T03:28:40;-3.68;65.15
65291;SHT30;51893;59.754;10.110;2023-04-01T03:31:07;-3.67;64.99
65291;SHT30;51893;59.754;10.110;2023-04-01T03:33:35;-3.68;65.01
65291;SHT30;51893;59.754;10.110;2023-04-01T03:36:02;-3.68;64.98
65291;SHT30;51893;59.754;10.110;2023-04-01T03:38:34;-3.75;64.90
65291;SHT30;51893;59.754;10.110;2023-04-01T03:41:02;-3.72;64.81
65291;SHT30;51893;59.754;10.110;2023-04-01T03:43:33;-3.72;64.83
65291;SHT30;51893;59.754;10.110;2023-04-01T03:46:00;-3.74;64.94
65291;SHT30;51893;59.754;10.110;2023-04-01T03:48:27;-3.77;64.86
65291;SHT30;51893;59.754;10.110;2023-04-01T03:50:54;-3.86;65.20
65291;SHT30;51893;59.754;10.110;2023-04-01T03:53:22;-3.89;65.24
65291;SHT30;51893;59.754;10.110;2023-04-01T03:55:49;-3.92;65.04
65291;SHT30;51893;59.754;10.110;2023-04-01T03:58:20;-3.92;64.95
65291;SHT30;51893;59.754;10.110;2023-04-01T04:00:47;-3.89;65.02
65291;SHT30;51893;59.754;10.110;2023-04-01T04:03:14;-3.88;65.18
65291;SHT30;51893;59.754;10.110;2023-04-01T04:05:47;-3.87;65.53
65291;SHT30;51893;59.754;10.110;2023-04-01T04:08:16;-3.92;65.51
65291;SHT30;51893;59.754;10.110;2023-04-01T04:10:43;-3.94;65.66
65291;SHT30;51893;59.754;10.110;2023-04-01T04:13:11;-4.04;65.69
65291;SHT30;51893;59.754;10.110;2023-04-01T04:15:38;-4.09;65.95
65291;SHT30;51893;59.754;10.110;2023-04-01T04:18:05;-4.10;66.03
65291;SHT30;51893;59.754;10.110;2023-04-01T04:20:31;-4.09;66.18
65291;SHT30;51893;59.754;10.110;2023-04-01T04:23:00;-4.10;65.87
65291;SHT30;51893;59.754;10.110;2023-04-01T04:25:28;-4.09;65.95
65291;SHT30;51893;59.754;10.110;2023-04-01T04:27:55;-4.05;65.97
65291;SHT30;51893;59.754;10.110;2023-04-01T04:30:22;-4.04;65.73
65291;SHT30;51893;59.754;10.110;2023-04-01T04:32:49;-4.04;65.54
65291;SHT30;51893;59.754;10.110;2023-04-01T04:35:15;-4.07;65.51
65291;SHT30;51893;59.754;10.110;2023-04-01T04:37:44;-4.08;65.39
65291;SHT30;51893;59.754;10.110;2023-04-01T04:40:11;-4.07;65.39
65291;SHT30;51893;59.754;10.110;2023-04-01T04:42:38;-4.05;65.47
65291;SHT30;51893;59.754;10.110;2023-04-01T04:45:05;-4.03;65.28
65291;SHT30;51893;59.754;10.110;2023-04-01T04:47:33;-4.05;65.18
65291;SHT30;51893;59.754;10.110;2023-04-01T04:50:01;-4.06;65.23
65291;SHT30;51893;59.754;10.110;2023-04-01T04:52:28;-4.07;65.22
65291;SHT30;51893;59.754;10.110;2023-04-01T04:54:58;-4.10;65.28
65291;SHT30;51893;59.754;10.110;2023-04-01T04:57:24;-4.13;65.34
65291;SHT30;51893;59.754;10.110;2023-04-01T04:59:51;-4.17;65.37
65291;SHT30;51893;59.754;10.110;2023-04-01T05:02:19;-4.26;65.49
65291;SHT30;51893;59.754;10.110;2023-04-01T05:04:46;-4.34;66.10
65291;SHT30;51893;59.754;10.110;2023-04-01T05:07:13;-4.32;66.20
65291;SHT30;51893;59.754;10.110;2023-04-01T05:09:40;-4.24;66.18
65291;SHT30;51893;59.754;10.110;2023-04-01T05:12:08;-4.20;65.94
65291;SHT30;51893;59.754;10.110;2023-04-01T05:14:36;-4.18;65.95
65291;SHT30;51893;59.754;10.110;2023-04-01T05:17:03;-4.10;65.82
65291;SHT30;51893;59.754;10.110;2023-04-01T05:19:29;-4.09;65.50
65291;SHT30;51893;59.754;10.110;2023-04-01T05:21:56;-4.03;65.51
65291;SHT30;51893;59.754;10.110;2023-04-01T05:24:23;-3.94;65.54
65291;SHT30;51893;59.754;10.110;2023-04-01T05:26:49;-3.86;65.29
65291;SHT30;51893;59.754;10.110;2023-04-01T05:29:17;-3.85;64.77
65291;SHT30;51893;59.754;10.110;2023-04-01T05:31:45;-3.91;64.71
65291;SHT30;51893;59.754;10.110;2023-04-01T05:34:13;-3.92;64.57
65291;SHT30;51893;59.754;10.110;2023-04-01T05:36:43;-3.86;64.69
65291;SHT30;51893;59.754;10.110;2023-04-01T05:39:10;-3.83;64.56
65291;SHT30;51893;59.754;10.110;2023-04-01T05:41:38;-3.89;64.30
65291;SHT30;51893;59.754;10.110;2023-04-01T05:44:06;-3.89;64.30
65291;SHT30;51893;59.754;10.110;2023-04-01T05:46:33;-3.94;64.13
65291;SHT30;51893;59.754;10.110;2023-04-01T05:48:59;-3.97;64.22
65291;SHT30;51893;59.754;10.110;2023-04-01T05:51:31;-3.92;64.24
65291;SHT30;51893;59.754;10.110;2023-04-01T05:53:57;-3.88;64.18
65291;SHT30;51893;59.754;10.110;2023-04-01T05:56:24;-3.86;64.16
65291;SHT30;51893;59.754;10.110;2023-04-01T05:58:51;-3.82;64.20
65291;SHT30;51893;59.754;10.110;2023-04-01T06:01:21;-3.79;64.08
65291;SHT30;51893;59.754;10.110;2023-04-01T06:03:49;-3.73;64.23
65291;SHT30;51893;59.754;10.110;2023-04-01T06:06:25;-3.65;64.14
65291;SHT30;51893;59.754;10.110;2023-04-01T06:08:56;-3.58;64.29
65291;SHT30;51893;59.754;10.110;2023-04-01T06:11:36;-3.54;64.10
65291;SHT30;51893;59.754;10.110;2023-04-01T06:24:15;-3.50;63.69
65291;SHT30;51893;59.754;10.110;2023-04-01T06:27:07;-3.48;63.46
65291;SHT30;51893;59.754;10.110;2023-04-01T06:33:35;-3.42;63.25
65291;SHT30;51893;59.754;10.110;2023-04-01T06:36:22;-3.38;63.15
65291;SHT30;51893;59.754;10.110;2023-04-01T06:45:18;-3.29;62.44
65291;SHT30;51893;59.754;10.110;2023-04-01T06:51:22;-3.08;62.25
65291;SHT30;51893;59.754;10.110;2023-04-01T06:56:59;-3.08;61.56
65291;SHT30;51893;59.754;10.110;2023-04-01T06:59:36;-3.09;61.68
65291;SHT30;51893;59.754;10.110;2023-04-01T07:05:07;-3.11;61.52
65291;SHT30;51893;59.754;10.110;2023-04-01T07:07:39;-3.06;61.70
65291;SHT30;51893;59.754;10.110;2023-04-01T07:10:15;-3.00;61.57
65291;SHT30;51893;59.754;10.110;2023-04-01T07:12:53;-2.90;61.60
65291;SHT30;51893;59.754;10.110;2023-04-01T07:15:30;-2.81;61.39
65291;SHT30;51893;59.754;10.110;2023-04-01T07:18:17;-2.70;61.08
65291;SHT30;51893;59.754;10.110;2023-04-01T07:20:54;-2.56;61.21
65291;SHT30;51893;59.754;10.110;2023-04-01T07:23:23;-2.45;60.74
65291;SHT30;51893;59.754;10.110;2023-04-01T07:26:04;-2.35;60.49
65291;SHT30;51893;59.754;10.110;2023-04-01T07:28:43;-2.19;60.01
65291;SHT30;51893;59.754;10.110;2023-04-01T07:31:15;-2.05;59.83
65291;SHT30;51893;59.754;10.110;2023-04-01T07:36:48;-1.88;59.37
65291;SHT30;51893;59.754;10.110;2023-04-01T07:45:51;-1.65;58.73
65291;SHT30;51893;59.754;10.110;2023-04-01T07:48:53;-1.55;58.45
65291;SHT30;51893;59.754;10.110;2023-04-01T07:51:38;-1.45;57.94
65291;SHT30;51893;59.754;10.110;2023-04-01T07:54:49;-1.37;57.16
65291;SHT30;51893;59.754;10.110;2023-04-01T08:00:27;-1.21;57.23
65291;SHT30;51893;59.754;10.110;2023-04-01T08:03:08;-1.13;56.79
65291;SHT30;51893;59.754;10.110;2023-04-01T08:06:07;-1.03;56.76
65291;SHT30;51893;59.754;10.110;2023-04-01T08:09:07;-0.93;56.25
65291;SHT30;51893;59.754;10.110;2023-04-01T08:19:00;-0.49;54.39
65291;SHT30;51893;59.754;10.110;2023-04-01T08:21:42;-0.49;53.97
65291;SHT30;51893;59.754;10.110;2023-04-01T08:30:06;-0.11;54.15
65291;SHT30;51893;59.754;10.110;2023-04-01T08:32:54;-0.03;53.68
65291;SHT30;51893;59.754;10.110;2023-04-01T08:35:31;0.08;53.56
65291;SHT30;51893;59.754;10.110;2023-04-01T08:38:19;0.20;53.06
65291;SHT30;51893;59.754;10.110;2023-04-01T08:41:20;0.30;52.94
65291;SHT30;51893;59.754;10.110;2023-04-01T08:50:21;0.72;52.14
65291;SHT30;51893;59.754;10.110;2023-04-01T09:21:50;1.78;48.66
65291;SHT30;51893;59.754;10.110;2023-04-01T09:27:27;2.05;48.53
65291;SHT30;51893;59.754;10.110;2023-04-01T09:36:18;2.55;48.32
65291;SHT30;51893;59.754;10.110;2023-04-01T09:44:40;2.93;47.46
65291;SHT30;51893;59.754;10.110;2023-04-01T09:47:41;3.06;46.76
65291;SHT30;51893;59.754;10.110;2023-04-01T09:50:32;3.13;46.02
65291;SHT30;51893;59.754;10.110;2023-04-01T09:53:52;3.22;46.29
65291;SHT30;51893;59.754;10.110;2023-04-01T10:20:12;4.29;43.35
65291;SHT30;51893;59.754;10.110;2023-04-01T10:56:24;5.01;40.09
65291;SHT30;51893;59.754;10.110;2023-04-01T11:02:17;5.23;39.07
65291;SHT30;51893;59.754;10.110;2023-04-01T11:11:26;5.43;38.56
65291;SHT30;51893;59.754;10.110;2023-04-01T11:20:28;5.82;37.99
65291;SHT30;51893;59.754;10.110;2023-04-01T11:32:49;6.33;36.37
65291;SHT30;51893;59.754;10.110;2023-04-01T11:52:47;7.07;36.93
65291;SHT30;51893;59.754;10.110;2023-04-01T11:58:36;7.21;35.45
65291;SHT30;51893;59.754;10.110;2023-04-01T12:02:11;7.16;34.55
65291;SHT30;51893;59.754;10.110;2023-04-01T12:05:03;7.18;34.76
65291;SHT30;51893;59.754;10.110;2023-04-01T12:13:52;7.40;35.42
65291;SHT30;51893;59.754;10.110;2023-04-01T12:19:29;7.50;34.21
65291;SHT30;51893;59.754;10.110;2023-04-01T12:28:10;7.48;33.85
65291;SHT30;51893;59.754;10.110;2023-04-01T12:37:29;7.81;34.50
65291;SHT30;51893;59.754;10.110;2023-04-01T12:40:26;7.81;33.57
65291;SHT30;51893;59.754;10.110;2023-04-01T12:46:49;8.16;35.63
65291;SHT30;51893;59.754;10.110;2023-04-01T12:49:31;8.33;35.03
65291;SHT30;51893;59.754;10.110;2023-04-01T12:52:36;8.41;34.83
65291;SHT30;51893;59.754;10.110;2023-04-01T13:01:23;9.27;34.92
65291;SHT30;51893;59.754;10.110;2023-04-01T13:15:51;10.15;34.14
65291;SHT30;51893;59.754;10.110;2023-04-01T13:18:25;10.27;34.06
65291;SHT30;51893;59.754;10.110;2023-04-01T13:27:38;10.44;34.12
65291;SHT30;51893;59.754;10.110;2023-04-01T13:33:04;10.49;33.12
65291;SHT30;51893;59.754;10.110;2023-04-01T13:42:48;10.40;34.16
65291;SHT30;51893;59.754;10.110;2023-04-01T13:45:27;10.23;33.54
65291;SHT30;51893;59.754;10.110;2023-04-01T13:54:34;10.35;34.00
65291;SHT30;51893;59.754;10.110;2023-04-01T14:01:00;10.29;33.83
65291;SHT30;51893;59.754;10.110;2023-04-01T14:15:52;9.90;34.51
65291;SHT30;51893;59.754;10.110;2023-04-01T14:21:28;9.65;33.46
65291;SHT30;51893;59.754;10.110;2023-04-01T14:24:18;9.41;33.72
65291;SHT30;51893;59.754;10.110;2023-04-01T14:27:13;9.23;33.13
65291;SHT30;51893;59.754;10.110;2023-04-01T14:33:43;9.12;34.52
65291;SHT30;51893;59.754;10.110;2023-04-01T14:36:28;9.07;33.94
65291;SHT30;51893;59.754;10.110;2023-04-01T14:42:23;8.94;34.51
65291;SHT30;51893;59.754;10.110;2023-04-01T14:48:51;8.88;35.04
65291;SHT30;51893;59.754;10.110;2023-04-01T14:56:42;8.84;34.46
65291;SHT30;51893;59.754;10.110;2023-04-01T15:13:59;9.20;34.02
65291;SHT30;51893;59.754;10.110;2023-04-01T15:22:24;9.53;34.21
65291;SHT30;51893;59.754;10.110;2023-04-01T15:31:18;10.31;33.49
65291;SHT30;51893;59.754;10.110;2023-04-01T15:37:15;10.38;32.23
65291;SHT30;51893;59.754;10.110;2023-04-01T15:45:37;10.53;31.53
65291;SHT30;51893;59.754;10.110;2023-04-01T15:51:11;10.09;32.58
65291;SHT30;51893;59.754;10.110;2023-04-01T15:57:08;10.04;31.17
65291;SHT30;51893;59.754;10.110;2023-04-01T16:06:06;10.35;32.25
65291;SHT30;51893;59.754;10.110;2023-04-01T16:14:12;10.19;33.27
65291;SHT30;51893;59.754;10.110;2023-04-01T16:20:26;10.05;34.06
65291;SHT30;51893;59.754;10.110;2023-04-01T16:29:17;10.43;33.66
65291;SHT30;51893;59.754;10.110;2023-04-01T16:35:16;10.32;33.29
65291;SHT30;51893;59.754;10.110;2023-04-01T16:38:12;10.33;32.81
65291;SHT30;51893;59.754;10.110;2023-04-01T16:43:42;10.36;33.92
65291;SHT30;51893;59.754;10.110;2023-04-01T16:46:41;10.24;34.41
65291;SHT30;51893;59.754;10.110;2023-04-01T16:49:31;10.23;35.64
65291;SHT30;51893;59.754;10.110;2023-04-01T16:54:59;10.27;36.96
65291;SHT30;51893;59.754;10.110;2023-04-01T17:00:30;10.08;37.07
65291;SHT30;51893;59.754;10.110;2023-04-01T17:03:28;9.78;37.53
65291;SHT30;51893;59.754;10.110;2023-04-01T17:12:05;8.94;40.45
65291;SHT30;51893;59.754;10.110;2023-04-01T17:20:56;8.03;40.38
65291;SHT30;51893;59.754;10.110;2023-04-01T17:45:24;6.01;47.02
65291;SHT30;51893;59.754;10.110;2023-04-01T17:48:21;5.78;47.55
65291;SHT30;51893;59.754;10.110;2023-04-01T18:00:24;4.91;51.44
65291;SHT30;51893;59.754;10.110;2023-04-01T18:09:28;4.39;52.90
65291;SHT30;51893;59.754;10.110;2023-04-01T18:15:39;4.19;53.84
65291;SHT30;51893;59.754;10.110;2023-04-01T18:30:55;3.63;55.51
65291;SHT30;51893;59.754;10.110;2023-04-01T18:34:06;3.55;55.80
65291;SHT30;51893;59.754;10.110;2023-04-01T18:36:51;3.44;55.48
65291;SHT30;51893;59.754;10.110;2023-04-01T18:42:19;3.24;56.35
65291;SHT30;51893;59.754;10.110;2023-04-01T18:45:18;3.23;56.57
65291;SHT30;51893;59.754;10.110;2023-04-01T18:51:24;3.23;55.84
65291;SHT30;51893;59.754;10.110;2023-04-01T18:54:23;3.13;55.95
65291;SHT30;51893;59.754;10.110;2023-04-01T18:57:04;2.93;56.49
65291;SHT30;51893;59.754;10.110;2023-04-01T18:59:45;2.85;56.73
65291;SHT30;51893;59.754;10.110;2023-04-01T19:02:40;2.76;56.95
65291;SHT30;51893;59.754;10.110;2023-04-01T19:05:30;2.71;57.36
65291;SHT30;51893;59.754;10.110;2023-04-01T19:20:03;2.28;56.46
65291;SHT30;51893;59.754;10.110;2023-04-01T19:26:39;2.20;56.56
65291;SHT30;51893;59.754;10.110;2023-04-01T19:35:41;2.00;56.54
65291;SHT30;51893;59.754;10.110;2023-04-01T19:38:22;1.97;56.90
65291;SHT30;51893;59.754;10.110;2023-04-01T19:41:39;1.91;56.21
65291;SHT30;51893;59.754;10.110;2023-04-01T19:46:58;1.85;57.11
65291;SHT30;51893;59.754;10.110;2023-04-01T19:52:58;1.80;56.62
65291;SHT30;51893;59.754;10.110;2023-04-01T20:01:47;1.63;56.37
65291;SHT30;51893;59.754;10.110;2023-04-01T20:05:15;1.62;56.75
65291;SHT30;51893;59.754;10.110;2023-04-01T20:08:18;1.62;56.32
65291;SHT30;51893;59.754;10.110;2023-04-01T20:39:43;1.13;59.58
65291;SHT30;51893;59.754;10.110;2023-04-01T20:51:29;0.99;59.10
65291;SHT30;51893;59.754;10.110;2023-04-01T20:54:09;0.99;58.53
65291;SHT30;51893;59.754;10.110;2023-04-01T21:03:37;0.84;58.24
65291;SHT30;51893;59.754;10.110;2023-04-01T21:12:51;0.57;57.96
65291;SHT30;51893;59.754;10.110;2023-04-01T21:25:26;0.47;58.19
65291;SHT30;51893;59.754;10.110;2023-04-01T21:28:18;0.35;57.99
65291;SHT30;51893;59.754;10.110;2023-04-01T21:40:23;0.29;57.83
65291;SHT30;51893;59.754;10.110;2023-04-01T21:43:21;0.30;57.96
65291;SHT30;51893;59.754;10.110;2023-04-01T22:01:33;0.11;58.15
65291;SHT30;51893;59.754;10.110;2023-04-01T22:13:22;0.05;57.57
65291;SHT30;51893;59.754;10.110;2023-04-01T22:16:41;-0.00;57.46
65291;SHT30;51893;59.754;10.110;2023-04-01T22:19:28;-0.02;57.56
65291;SHT30;51893;59.754;10.110;2023-04-01T22:25:00;0.01;57.02
65291;SHT30;51893;59.754;10.110;2023-04-01T22:30:33;-0.07;57.43
65291;SHT30;51893;59.754;10.110;2023-04-01T22:33:16;-0.09;57.81
65291;SHT30;51893;59.754;10.110;2023-04-01T22:38:47;-0.20;58.45
65291;SHT30;51893;59.754;10.110;2023-04-01T22:50:25;-0.38;58.15
65291;SHT30;51893;59.754;10.110;2023-04-01T22:53:17;-0.44;58.24
65291;SHT30;51893;59.754;10.110;2023-04-01T22:56:04;-0.48;58.34
65291;SHT30;51893;59.754;10.110;2023-04-01T22:58:42;-0.52;58.58
65291;SHT30;51893;59.754;10.110;2023-04-01T23:01:23;-0.53;58.73
65291;SHT30;51893;59.754;10.110;2023-04-01T23:03:58;-0.53;58.67
65291;SHT30;51893;59.754;10.110;2023-04-01T23:06:37;-0.61;58.69
65291;SHT30;51893;59.754;10.110;2023-04-01T23:09:20;-0.68;58.53
65291;SHT30;51893;59.754;10.110;2023-04-01T23:11:56;-0.70;58.55
65291;SHT30;51893;59.754;10.110;2023-04-01T23:26:36;-0.64;59.00
65291;SHT30;51893;59.754;10.110;2023-04-01T23:29:16;-0.68;59.29
65291;SHT30;51893;59.754;10.110;2023-04-01T23:31:47;-0.70;59.21
65291;SHT30;51893;59.754;10.110;2023-04-01T23:34:29;-0.75;59.49
65291;SHT30;51893;59.754;10.110;2023-04-01T23:37:02;-0.80;59.97
65291;SHT30;51893;59.754;10.110;2023-04-01T23:39:36;-0.93;60.28
65291;SHT30;51893;59.754;10.110;2023-04-01T23:42:12;-0.94;60.02
65291;SHT30;51893;59.754;10.110;2023-04-01T23:44:53;-0.96;59.80
65291;SHT30;51893;59.754;10.110;2023-04-01T23:47:30;-0.93;59.99
65291;SHT30;51893;59.754;10.110;2023-04-01T23:50:21;-1.00;59.91
65291;SHT30;51893;59.754;10.110;2023-04-01T23:52:53;-1.05;59.87
65291;SHT30;51893;59.754;10.110;2023-04-01T23:55:32;-1.10;59.84
